KICT/ICT METAR and TAF weather

Enter ICAO airport designator
Station Type Date Time Source
KICT METAR 2020/04/05 11:53 UTC NOAA

KICT 051153Z 16003KT 2 1/2SM -DZ BR OVC006 04/03 A3007 RMK AO2 DZB49 SLP185 P0000 60000 T00440028 10050 20044 53002 $


Station Type Date Time Source
KICT Decoded METAR 2020/04/05 11:53 UTC NOAA

WICHITA MID-CONTINENT AIRPORT , KS, United States (KICT) 37-39N 97-26W 408M
Apr 05, 2020 - 07:53 AM EDT / 2020.04.05 1153 UTC
Wind: from the SSE (160 degrees) at 3 MPH (3 KT):0
Visibility: 2 1/2 mile(s):0
Sky conditions: overcast
Weather: light drizzle; mist
Precipitation last hour: A trace
Temperature: 39.9 F (4.4 C)
Dew Point: 37.0 F (2.8 C)
Relative Humidity: 89%
Pressure (altimeter): 30.07 in. Hg (1018 hPa)
Pressure tendency: 0.01 inches (0.2 hPa) higher than three hours ago
ob: KICT 051153Z 16003KT 2 1/2SM -DZ BR OVC006 04/03 A3007 RMK AO2 DZB49 SLP185 P0000 60000 T00440028 10050 20044 53002
cycle: 12

Station Type Date Time Source
KICT TAF 2020/04/05 12:22 UTC NOAA

TAF KICT 051120Z 0512/0612 17005KT 4SM FU BR OVC008
FM051500 15007KT P6SM BKN015
FM052200 16012KT P6SM FEW050
FM060300 16012KT P6SM BKN030
FM060800 17013KT P6SM SCT008 BKN015

Example: see airport list